createdAt,value
2023-03-19T00:00:31.966Z,100286.44
2023-03-19T00:02:59.118Z,100288.66
2023-03-19T00:05:26.136Z,100270.97
2023-03-19T00:07:53.049Z,100263.97
2023-03-19T00:10:19.864Z,100265.66
2023-03-19T00:12:47.583Z,100265.63
2023-03-19T00:15:15.504Z,100269.31
2023-03-19T00:17:43.311Z,100279.03
2023-03-19T00:20:12.315Z,100272.22
2023-03-19T00:22:40.289Z,100282.50
2023-03-19T00:25:08.557Z,100273.19
2023-03-19T00:27:37.449Z,100276.25
2023-03-19T00:30:06.517Z,100274.34
2023-03-19T00:32:34.297Z,100256.03
2023-03-19T00:35:01.588Z,100265.13
2023-03-19T00:37:28.690Z,100263.44
2023-03-19T00:39:56.315Z,100266.88
2023-03-19T00:42:23.230Z,100276.44
2023-03-19T00:44:49.993Z,100271.91
2023-03-19T00:47:16.994Z,100263.66
2023-03-19T00:49:44.002Z,100265.53
2023-03-19T00:52:10.951Z,100270.44
2023-03-19T00:54:40.211Z,100278.41
2023-03-19T00:57:08.279Z,100271.47
2023-03-19T00:59:35.088Z,100263.19
2023-03-19T01:02:03.660Z,100278.75
2023-03-19T01:04:30.895Z,100278.88
2023-03-19T01:09:26.908Z,100277.47
2023-03-19T01:11:54.195Z,100277.41
2023-03-19T01:14:21.309Z,100276.97
2023-03-19T01:16:48.284Z,100271.59
2023-03-19T01:19:16.581Z,100286.47
2023-03-19T01:21:46.592Z,100277.72
2023-03-19T01:24:17.617Z,100280.91
2023-03-19T01:26:47.336Z,100277.25
2023-03-19T01:29:21.088Z,100282.53
2023-03-19T01:31:48.054Z,100281.06
2023-03-19T01:34:33.490Z,100268.44
2023-03-19T01:37:12.835Z,100270.47
2023-03-19T01:39:41.606Z,100281.03
2023-03-19T01:42:12.580Z,100272.78
2023-03-19T01:44:59.318Z,100279.50
2023-03-19T01:47:48.168Z,100281.84
2023-03-19T01:50:31.920Z,100283.25
2023-03-19T01:53:19.891Z,100280.94
2023-03-19T01:55:56.624Z,100286.19
2023-03-19T01:58:55.146Z,100286.88
2023-03-19T02:02:00.747Z,100296.94
2023-03-19T02:04:29.778Z,100287.09
2023-03-19T02:06:58.233Z,100283.41
2023-03-19T02:09:27.392Z,100283.06
2023-03-19T02:11:55.348Z,100284.69
2023-03-19T02:14:22.701Z,100290.31
2023-03-19T02:16:49.842Z,100282.50
2023-03-19T02:19:40.410Z,100287.09
2023-03-19T02:22:08.773Z,100287.03
2023-03-19T02:24:42.019Z,100286.91
2023-03-19T02:27:13.204Z,100288.47
2023-03-19T02:29:45.173Z,100280.63
2023-03-19T02:32:13.109Z,100286.25
2023-03-19T02:34:42.599Z,100292.13
2023-03-19T02:37:26.657Z,100289.44
2023-03-19T02:40:17.274Z,100295.50
2023-03-19T02:42:44.127Z,100292.28
2023-03-19T02:45:11.937Z,100282.28
2023-03-19T02:47:38.847Z,100284.13
2023-03-19T02:50:06.445Z,100297.50
2023-03-19T02:52:33.472Z,100292.31
2023-03-19T02:55:00.424Z,100289.88
2023-03-19T02:57:27.730Z,100295.28
2023-03-19T02:59:54.614Z,100294.28
2023-03-19T03:02:22.120Z,100295.16
2023-03-19T03:04:49.278Z,100294.88
2023-03-19T03:07:16.155Z,100285.91
2023-03-19T03:09:42.974Z,100291.59
2023-03-19T03:12:10.348Z,100295.44
2023-03-19T03:14:38.180Z,100304.13
2023-03-19T03:17:05.347Z,100300.13
2023-03-19T03:19:32.343Z,100300.00
2023-03-19T03:22:00.851Z,100305.03
2023-03-19T03:24:27.834Z,100304.91
2023-03-19T03:26:54.637Z,100307.28
2023-03-19T03:29:21.601Z,100308.78
2023-03-19T03:31:48.644Z,100311.44
2023-03-19T03:34:15.539Z,100302.25
2023-03-19T03:36:42.345Z,100309.28
2023-03-19T03:39:09.138Z,100305.34
2023-03-19T03:41:36.565Z,100305.94
2023-03-19T03:44:03.398Z,100305.50
2023-03-19T03:46:33.412Z,100310.78
2023-03-19T03:49:01.133Z,100301.59
2023-03-19T03:51:27.962Z,100310.16
2023-03-19T03:53:54.902Z,100306.00
2023-03-19T03:56:21.991Z,100309.03
2023-03-19T03:58:48.830Z,100313.03
2023-03-19T04:01:16.796Z,100315.03
2023-03-19T04:03:46.785Z,100318.72
2023-03-19T04:06:18.815Z,100322.88
2023-03-19T04:08:49.603Z,100319.19
2023-03-19T04:11:16.414Z,100323.22
2023-03-19T04:13:43.285Z,100319.75
2023-03-19T04:16:11.283Z,100323.09
2023-03-19T04:18:38.849Z,100330.06
2023-03-19T04:21:06.604Z,100328.94
2023-03-19T04:23:33.514Z,100329.59
2023-03-19T04:26:02.381Z,100327.44
2023-03-19T04:28:30.743Z,100321.78
2023-03-19T04:31:01.565Z,100329.31
2023-03-19T04:33:30.184Z,100326.13
2023-03-19T04:35:57.336Z,100329.28
2023-03-19T04:38:26.528Z,100329.44
2023-03-19T04:40:54.124Z,100321.78
2023-03-19T04:43:21.362Z,100310.16
2023-03-19T04:45:48.298Z,100321.44
2023-03-19T04:48:16.069Z,100326.44
2023-03-19T04:50:43.072Z,100324.44
2023-03-19T04:53:09.973Z,100321.78
2023-03-19T04:55:37.309Z,100316.81
2023-03-19T04:58:13.730Z,100318.31
2023-03-19T05:00:42.084Z,100327.28
2023-03-19T05:03:08.937Z,100337.63
2023-03-19T05:05:36.470Z,100339.13
2023-03-19T05:08:08.779Z,100336.59
2023-03-19T05:10:37.685Z,100342.22
2023-03-19T05:13:04.957Z,100347.25
2023-03-19T05:15:33.729Z,100348.53
2023-03-19T05:18:05.057Z,100345.16
2023-03-19T05:20:40.642Z,100353.97
2023-03-19T05:23:15.922Z,100347.56
2023-03-19T05:25:48.029Z,100349.69
2023-03-19T05:28:20.856Z,100347.13
2023-03-19T05:30:47.777Z,100338.53
2023-03-19T05:33:28.572Z,100344.31
2023-03-19T05:35:58.209Z,100340.75
2023-03-19T05:38:44.596Z,100338.03
2023-03-19T05:41:18.052Z,100345.88
2023-03-19T05:44:02.184Z,100338.78
2023-03-19T05:46:47.552Z,100339.75
2023-03-19T05:49:16.033Z,100336.03
2023-03-19T05:51:42.788Z,100336.53
2023-03-19T05:54:10.541Z,100340.09
2023-03-19T05:56:47.791Z,100339.53
2023-03-19T05:59:49.946Z,100336.41
2023-03-19T06:02:36.292Z,100340.53
2023-03-19T06:05:21.587Z,100339.06
2023-03-19T06:07:49.155Z,100342.47
2023-03-19T06:10:25.958Z,100347.06
2023-03-19T06:12:55.407Z,100342.38
2023-03-19T06:15:40.705Z,100350.31
2023-03-19T06:18:13.878Z,100354.28
2023-03-19T06:20:40.957Z,100349.69
2023-03-19T06:23:08.514Z,100355.53
2023-03-19T06:25:36.069Z,100357.94
2023-03-19T06:28:03.644Z,100360.13
2023-03-19T06:30:36.745Z,100367.69
2023-03-19T06:33:09.475Z,100366.94
2023-03-19T06:35:36.600Z,100368.53
2023-03-19T06:38:03.419Z,100375.41
2023-03-19T06:40:30.300Z,100371.22
2023-03-19T06:42:57.312Z,100367.75
2023-03-19T06:45:24.264Z,100365.72
2023-03-19T06:47:53.486Z,100372.34
2023-03-19T06:50:20.790Z,100374.38
2023-03-19T06:52:47.504Z,100378.50
2023-03-19T06:55:14.481Z,100371.72
2023-03-19T06:57:41.663Z,100377.81
2023-03-19T07:00:11.768Z,100382.78
2023-03-19T07:02:38.528Z,100378.81
2023-03-19T07:05:05.777Z,100373.53
2023-03-19T07:07:32.789Z,100384.50
2023-03-19T07:09:59.917Z,100385.34
2023-03-19T07:12:29.891Z,100389.72
2023-03-19T07:14:56.847Z,100385.59
2023-03-19T07:17:25.097Z,100387.06
2023-03-19T07:19:52.265Z,100389.38
2023-03-19T07:22:19.661Z,100387.97
2023-03-19T07:24:46.526Z,100387.47
2023-03-19T07:27:13.370Z,100388.63
2023-03-19T07:29:40.236Z,100392.38
2023-03-19T07:32:07.900Z,100397.38
2023-03-19T07:34:34.799Z,100386.00
2023-03-19T07:37:01.929Z,100391.56
2023-03-19T07:39:28.836Z,100380.31
2023-03-19T07:41:55.776Z,100379.16
2023-03-19T07:44:23.637Z,100376.06
2023-03-19T07:46:50.621Z,100378.69
2023-03-19T07:49:17.596Z,100378.06
2023-03-19T07:51:44.521Z,100379.50
2023-03-19T07:54:11.471Z,100385.81
2023-03-19T07:56:38.562Z,100382.22
2023-03-19T07:59:06.047Z,100375.59
2023-03-19T08:01:32.986Z,100380.81
2023-03-19T08:04:00.054Z,100385.28
2023-03-19T08:06:26.950Z,100371.81
2023-03-19T08:08:53.819Z,100375.19
2023-03-19T08:11:20.879Z,100382.66
2023-03-19T08:13:47.688Z,100377.72
2023-03-19T08:16:14.457Z,100383.69
2023-03-19T08:18:41.285Z,100373.81
2023-03-19T08:21:08.516Z,100371.19
2023-03-19T08:23:35.809Z,100372.78
2023-03-19T08:26:02.864Z,100378.47
2023-03-19T08:28:29.795Z,100380.28
2023-03-19T08:30:56.740Z,100379.16
2023-03-19T08:33:23.783Z,100376.41
2023-03-19T08:35:50.767Z,100366.72
2023-03-19T08:38:17.831Z,100371.38
2023-03-19T08:40:44.700Z,100375.94
2023-03-19T08:43:11.574Z,100372.78
2023-03-19T08:45:38.434Z,100376.13
2023-03-19T08:48:05.719Z,100383.41
2023-03-19T08:50:32.801Z,100385.38
2023-03-19T08:53:00.046Z,100383.13
2023-03-19T08:55:26.920Z,100379.19
2023-03-19T08:57:53.755Z,100372.72
2023-03-19T09:00:20.776Z,100367.88
2023-03-19T09:02:47.689Z,100372.72
2023-03-19T09:05:14.606Z,100379.59
2023-03-19T09:07:41.464Z,100373.41
2023-03-19T09:10:08.884Z,100374.69
2023-03-19T09:12:35.777Z,100374.53
2023-03-19T09:15:03.696Z,100373.34
2023-03-19T09:17:30.656Z,100371.97
2023-03-19T09:19:57.616Z,100378.94
2023-03-19T09:22:24.553Z,100378.97
2023-03-19T09:24:52.328Z,100375.22
2023-03-19T09:27:20.025Z,100362.66
2023-03-19T09:29:52.771Z,100360.31
2023-03-19T09:32:19.780Z,100365.38
2023-03-19T09:34:49.078Z,100357.25
2023-03-19T09:37:16.327Z,100366.63
2023-03-19T09:39:43.705Z,100366.66
2023-03-19T09:42:48.210Z,100373.75
2023-03-19T09:45:18.709Z,100364.84
2023-03-19T09:47:49.698Z,100360.91
2023-03-19T09:50:20.433Z,100351.34
2023-03-19T09:53:21.910Z,100361.72
2023-03-19T09:55:51.598Z,100349.53
2023-03-19T09:58:24.704Z,100350.22
2023-03-19T10:00:53.518Z,100348.69
2023-03-19T10:03:55.765Z,100340.59
2023-03-19T10:06:35.775Z,100336.69
2023-03-19T10:09:22.690Z,100334.19
2023-03-19T10:12:25.392Z,100331.47
2023-03-19T10:15:04.537Z,100323.88
2023-03-19T10:17:36.337Z,100321.13
2023-03-19T10:20:10.839Z,100309.78
2023-03-19T10:23:07.305Z,100310.47
2023-03-19T10:25:40.403Z,100302.97
2023-03-19T10:28:18.931Z,100300.28
2023-03-19T10:31:02.625Z,100299.22
2023-03-19T10:33:43.446Z,100298.97
2023-03-19T10:36:14.810Z,100301.09
2023-03-19T10:38:44.328Z,100299.28
2023-03-19T10:41:24.879Z,100297.38
2023-03-19T10:43:57.105Z,100292.31
2023-03-19T10:46:24.482Z,100295.13
2023-03-19T10:48:51.331Z,100295.13
2023-03-19T10:51:26.132Z,100284.97
2023-03-19T10:53:55.757Z,100279.63
2023-03-19T10:56:34.174Z,100278.91
2023-03-19T10:59:07.712Z,100272.34
2023-03-19T11:01:38.621Z,100278.75
2023-03-19T11:04:19.045Z,100269.00
2023-03-19T11:06:50.952Z,100275.09
2023-03-19T11:09:33.691Z,100273.00
2023-03-19T11:12:19.958Z,100267.91
2023-03-19T11:14:52.755Z,100261.69
2023-03-19T11:17:46.185Z,100255.44
2023-03-19T11:20:19.053Z,100251.31
2023-03-19T11:22:50.106Z,100254.75
2023-03-19T11:25:19.279Z,100251.47
2023-03-19T11:28:07.829Z,100241.84
2023-03-19T11:30:40.801Z,100245.91
2023-03-19T11:33:37.312Z,100241.88
2023-03-19T11:36:17.728Z,100238.19
2023-03-19T11:38:51.342Z,100237.16
2023-03-19T11:41:30.650Z,100235.47
2023-03-19T11:44:09.565Z,100230.16
2023-03-19T11:46:54.413Z,100225.47
2023-03-19T11:49:43.158Z,100216.69
2023-03-19T11:52:16.024Z,100223.13
2023-03-19T11:54:55.061Z,100215.41
2023-03-19T11:57:35.879Z,100211.44
2023-03-19T12:00:39.494Z,100207.69
2023-03-19T12:03:54.532Z,100201.06
2023-03-19T12:06:30.675Z,100200.72
2023-03-19T12:09:07.164Z,100211.47
2023-03-19T12:11:40.150Z,100198.34
2023-03-19T12:14:13.810Z,100202.34
2023-03-19T12:17:18.062Z,100193.63
2023-03-19T12:20:16.907Z,100198.66
2023-03-19T12:23:04.822Z,100189.31
2023-03-19T12:25:59.743Z,100195.59
2023-03-19T12:28:43.950Z,100180.41
2023-03-19T12:31:42.179Z,100180.84
2023-03-19T12:34:34.087Z,100178.47
2023-03-19T12:37:08.454Z,100174.66
2023-03-19T12:39:40.088Z,100180.41
2023-03-19T12:42:13.567Z,100169.78
2023-03-19T12:44:46.347Z,100167.06
2023-03-19T12:47:16.106Z,100177.66
2023-03-19T12:49:47.888Z,100168.94
2023-03-19T12:52:43.975Z,100175.72
2023-03-19T12:55:20.587Z,100172.69
2023-03-19T12:57:54.707Z,100166.38
2023-03-19T13:00:33.487Z,100162.59
2023-03-19T13:03:49.350Z,100165.84
2023-03-19T13:06:35.875Z,100164.66
2023-03-19T13:09:16.572Z,100169.38
2023-03-19T13:11:49.385Z,100157.41
2023-03-19T13:14:44.064Z,100155.34
2023-03-19T13:17:38.515Z,100154.03
2023-03-19T13:20:16.950Z,100150.09
2023-03-19T13:22:51.935Z,100145.47
2023-03-19T13:25:25.084Z,100152.84
2023-03-19T13:27:56.322Z,100145.22
2023-03-19T13:30:26.157Z,100150.66
2023-03-19T13:33:13.195Z,100149.03
2023-03-19T13:36:08.145Z,100146.84
2023-03-19T13:38:39.716Z,100143.50
2023-03-19T13:41:35.453Z,100142.19
2023-03-19T13:44:34.523Z,100139.50
2023-03-19T13:47:39.612Z,100148.78
2023-03-19T13:50:08.738Z,100144.66
2023-03-19T13:52:44.971Z,100131.84
2023-03-19T13:55:34.025Z,100130.47
2023-03-19T13:58:12.660Z,100132.88
2023-03-19T14:00:45.399Z,100129.63
2023-03-19T14:03:25.523Z,100133.47
2023-03-19T14:05:56.430Z,100129.69
2023-03-19T14:08:43.776Z,100126.41
2023-03-19T14:11:11.268Z,100129.13
2023-03-19T14:13:42.516Z,100123.38
2023-03-19T14:16:17.139Z,100124.22
2023-03-19T14:18:44.772Z,100117.31
2023-03-19T14:21:31.110Z,100115.72
2023-03-19T14:24:54.769Z,100101.25
2023-03-19T14:27:43.755Z,100107.78
2023-03-19T14:30:29.897Z,100124.84
2023-03-19T14:33:03.130Z,100115.50
2023-03-19T14:35:35.203Z,100111.22
2023-03-19T14:38:14.107Z,100100.97
2023-03-19T14:40:47.520Z,100103.44
2023-03-19T14:44:02.627Z,100104.41
2023-03-19T14:46:50.332Z,100118.56
2023-03-19T14:49:54.525Z,100103.81
2023-03-19T14:52:27.021Z,100117.91
2023-03-19T14:54:59.311Z,100115.22
2023-03-19T14:57:29.082Z,100135.28
2023-03-19T14:59:56.143Z,100110.78
2023-03-19T15:02:43.878Z,100115.63
2023-03-19T15:05:15.644Z,100112.97
2023-03-19T15:07:47.249Z,100116.09
2023-03-19T15:10:19.198Z,100127.25
2023-03-19T15:13:17.324Z,100129.69
2023-03-19T15:15:46.870Z,100125.66
2023-03-19T15:18:16.406Z,100121.44
2023-03-19T15:20:55.163Z,100129.63
2023-03-19T15:23:28.439Z,100126.66
2023-03-19T15:26:04.156Z,100140.00
2023-03-19T15:28:46.707Z,100134.44
2023-03-19T15:31:29.797Z,100137.63
2023-03-19T15:33:58.541Z,100142.03
2023-03-19T15:36:31.604Z,100143.84
2023-03-19T15:39:05.291Z,100147.78
2023-03-19T15:41:36.082Z,100155.53
2023-03-19T15:44:10.240Z,100156.34
2023-03-19T15:46:41.212Z,100144.63
2023-03-19T15:49:10.733Z,100160.38
2023-03-19T15:51:38.692Z,100157.75
2023-03-19T15:54:06.891Z,100160.72
2023-03-19T15:56:35.043Z,100157.44
2023-03-19T15:59:04.098Z,100156.81
2023-03-19T16:01:33.622Z,100168.19
2023-03-19T16:04:02.140Z,100166.09
2023-03-19T16:06:31.744Z,100167.91
2023-03-19T16:09:31.182Z,100174.53
2023-03-19T16:11:58.233Z,100177.19
2023-03-19T16:14:27.148Z,100172.66
2023-03-19T16:17:10.973Z,100170.69
2023-03-19T16:19:40.317Z,100181.47
2023-03-19T16:22:17.177Z,100171.84
2023-03-19T16:24:46.142Z,100179.66
2023-03-19T16:27:17.027Z,100176.81
2023-03-19T16:29:58.607Z,100184.31
2023-03-19T16:32:32.870Z,100187.41
2023-03-19T16:35:27.546Z,100196.28
2023-03-19T16:37:54.944Z,100197.28
2023-03-19T16:40:21.691Z,100201.31
2023-03-19T16:42:51.024Z,100205.59
2023-03-19T16:45:28.618Z,100200.53
2023-03-19T16:47:57.993Z,100209.16
2023-03-19T16:50:31.964Z,100206.94
2023-03-19T16:53:01.345Z,100222.63
2023-03-19T16:55:32.583Z,100220.88
2023-03-19T16:58:02.632Z,100218.66
2023-03-19T17:00:32.216Z,100216.53
2023-03-19T17:03:01.080Z,100226.06
2023-03-19T17:05:31.729Z,100233.38
2023-03-19T17:07:58.597Z,100234.44
2023-03-19T17:10:28.458Z,100231.13
2023-03-19T17:12:55.638Z,100238.63
2023-03-19T17:15:40.539Z,100239.94
2023-03-19T17:18:19.001Z,100242.56
2023-03-19T17:21:15.230Z,100244.91
2023-03-19T17:23:42.597Z,100258.25
2023-03-19T17:26:16.004Z,100261.56
2023-03-19T17:28:43.216Z,100264.94
2023-03-19T17:31:27.630Z,100262.28
2023-03-19T17:34:05.005Z,100261.84
2023-03-19T17:36:32.695Z,100260.66
2023-03-19T17:38:59.605Z,100253.47
2023-03-19T17:41:26.482Z,100262.56
2023-03-19T17:43:53.373Z,100255.16
2023-03-19T17:46:26.175Z,100259.88
2023-03-19T17:48:54.165Z,100258.34
2023-03-19T17:51:23.553Z,100263.78
2023-03-19T17:53:53.293Z,100271.66
2023-03-19T17:56:22.578Z,100266.47
2023-03-19T17:58:50.541Z,100265.78
2023-03-19T18:01:23.519Z,100273.47
2023-03-19T18:03:52.042Z,100278.06
2023-03-19T18:06:21.038Z,100270.53
2023-03-19T18:08:48.646Z,100267.31
2023-03-19T18:11:15.512Z,100276.84
2023-03-19T18:13:42.621Z,100274.81
2023-03-19T18:16:21.702Z,100274.97
2023-03-19T18:18:51.703Z,100272.59
2023-03-19T18:21:18.723Z,100271.06
2023-03-19T18:23:45.681Z,100270.63
2023-03-19T18:26:12.596Z,100275.88
2023-03-19T18:28:39.880Z,100279.66
2023-03-19T18:31:15.843Z,100276.84
2023-03-19T18:33:46.909Z,100274.34
2023-03-19T18:36:24.629Z,100268.34
2023-03-19T18:38:52.619Z,100274.47
2023-03-19T18:41:20.510Z,100274.00
2023-03-19T18:44:04.020Z,100277.41
2023-03-19T18:46:32.670Z,100279.44
2023-03-19T18:49:05.950Z,100266.22
2023-03-19T18:51:33.123Z,100279.66
2023-03-19T18:54:00.336Z,100280.81
2023-03-19T18:56:30.566Z,100281.16
2023-03-19T18:58:58.774Z,100292.47
2023-03-19T19:01:27.059Z,100295.25
2023-03-19T19:03:55.125Z,100301.00
2023-03-19T19:06:46.844Z,100293.47
2023-03-19T19:09:14.800Z,100294.47
2023-03-19T19:11:44.516Z,100296.75
2023-03-19T19:14:24.690Z,100305.00
2023-03-19T19:16:53.720Z,100301.91
2023-03-19T19:19:23.660Z,100305.97
2023-03-19T19:21:53.705Z,100304.69
2023-03-19T19:24:21.345Z,100295.22
2023-03-19T19:26:51.613Z,100306.44
2023-03-19T19:29:27.071Z,100300.56
2023-03-19T19:31:54.881Z,100298.75
2023-03-19T19:34:22.433Z,100299.69
2023-03-19T19:36:51.132Z,100301.78
2023-03-19T19:39:18.545Z,100299.75
2023-03-19T19:41:46.813Z,100307.13
2023-03-19T19:44:22.374Z,100310.66
2023-03-19T19:46:53.435Z,100309.47
2023-03-19T19:49:21.740Z,100315.75
2023-03-19T19:51:48.525Z,100311.03
2023-03-19T19:54:15.796Z,100312.63
2023-03-19T19:56:42.802Z,100315.75
2023-03-19T19:59:15.663Z,100310.34
2023-03-19T20:01:42.544Z,100310.78
2023-03-19T20:04:14.676Z,100315.22
2023-03-19T20:06:41.618Z,100311.16
2023-03-19T20:09:08.751Z,100308.56
2023-03-19T20:11:35.757Z,100303.22
2023-03-19T20:14:02.637Z,100304.78
2023-03-19T20:16:29.571Z,100308.47
2023-03-19T20:18:57.003Z,100314.22
2023-03-19T20:21:24.133Z,100313.25
2023-03-19T20:23:55.463Z,100319.94
2023-03-19T20:26:24.829Z,100314.81
2023-03-19T20:28:52.183Z,100308.16
2023-03-19T20:31:29.161Z,100302.03
2023-03-19T20:33:57.441Z,100301.34
2023-03-19T20:36:24.241Z,100305.72
2023-03-19T20:38:52.666Z,100317.13
2023-03-19T20:41:25.963Z,100319.63
2023-03-19T20:43:53.867Z,100315.81
2023-03-19T20:46:23.365Z,100322.16
2023-03-19T20:48:50.774Z,100316.53
2023-03-19T20:51:20.283Z,100319.78
2023-03-19T20:53:48.640Z,100324.19
2023-03-19T20:56:17.693Z,100326.75
2023-03-19T20:58:45.701Z,100330.69
2023-03-19T21:01:14.454Z,100327.22
2023-03-19T21:03:41.985Z,100329.53
2023-03-19T21:06:21.295Z,100329.91
2023-03-19T21:08:51.772Z,100324.69
2023-03-19T21:11:21.212Z,100323.09
2023-03-19T21:13:50.630Z,100331.72
2023-03-19T21:16:23.236Z,100330.25
2023-03-19T21:18:51.903Z,100328.81
2023-03-19T21:21:27.868Z,100331.56
2023-03-19T21:24:00.383Z,100337.72
2023-03-19T21:26:27.341Z,100336.09
2023-03-19T21:29:00.576Z,100336.16
2023-03-19T21:31:28.656Z,100338.78
2023-03-19T21:33:58.329Z,100336.53
2023-03-19T21:36:25.752Z,100337.78
2023-03-19T21:38:52.662Z,100331.44
2023-03-19T21:41:28.531Z,100337.50
2023-03-19T21:43:57.465Z,100329.38
2023-03-19T21:46:27.282Z,100328.66
2023-03-19T21:48:56.195Z,100332.63
2023-03-19T21:51:25.330Z,100329.97
2023-03-19T21:53:52.699Z,100330.66
2023-03-19T21:56:33.505Z,100324.88
2023-03-19T21:59:03.325Z,100324.03
2023-03-19T22:01:30.283Z,100328.22
2023-03-19T22:03:58.026Z,100323.66
2023-03-19T22:06:25.317Z,100318.03
2023-03-19T22:08:54.281Z,100321.53
2023-03-19T22:11:26.851Z,100316.72
2023-03-19T22:13:55.536Z,100321.25
2023-03-19T22:16:24.850Z,100318.94
2023-03-19T22:18:52.784Z,100315.00
2023-03-19T22:21:22.598Z,100310.25
2023-03-19T22:23:50.998Z,100307.75
2023-03-19T22:26:27.275Z,100310.69
2023-03-19T22:28:55.548Z,100307.13
2023-03-19T22:31:23.127Z,100304.91
2023-03-19T22:33:50.673Z,100301.38
2023-03-19T22:36:17.828Z,100305.09
2023-03-19T22:38:45.243Z,100305.03
2023-03-19T22:41:34.236Z,100306.84
2023-03-19T22:44:03.609Z,100302.31
2023-03-19T22:46:30.671Z,100302.50
2023-03-19T22:48:57.994Z,100311.59
2023-03-19T22:51:27.576Z,100315.34
2023-03-19T22:53:55.308Z,100314.28
2023-03-19T22:56:22.981Z,100316.34
2023-03-19T22:58:49.865Z,100310.53
2023-03-19T23:01:23.223Z,100309.53
2023-03-19T23:03:50.667Z,100311.41
2023-03-19T23:06:30.090Z,100315.97
2023-03-19T23:08:58.246Z,100313.03
2023-03-19T23:11:25.290Z,100316.81
2023-03-19T23:13:52.574Z,100318.22
2023-03-19T23:16:23.691Z,100321.19
2023-03-19T23:18:51.284Z,100325.97
2023-03-19T23:21:19.705Z,100321.81
2023-03-19T23:23:46.632Z,100319.78
2023-03-19T23:26:26.239Z,100321.66
2023-03-19T23:28:56.847Z,100324.81
2023-03-19T23:31:23.707Z,100317.84
2023-03-19T23:33:50.483Z,100316.78
2023-03-19T23:36:17.828Z,100320.72
2023-03-19T23:38:44.919Z,100311.03
2023-03-19T23:41:23.387Z,100316.25
2023-03-19T23:43:51.980Z,100320.19
2023-03-19T23:46:19.954Z,100317.06
2023-03-19T23:48:46.924Z,100317.63
2023-03-19T23:51:15.537Z,100317.41
2023-03-19T23:53:43.431Z,100308.13
2023-03-19T23:56:20.035Z,100316.59
2023-03-19T23:58:49.062Z,100316.59
